This is the latest recevied weather packets stored in our database for station/object PU5BHV. If no packets are shown the sender has not sent any weather packets the latest 10 day(s).
| Time | Temp. | Humidity | Pressure | Rain* | Wind** | Luminosity | Snow |
|---|---|---|---|---|---|---|---|
| 1778167649 | 28.89° C | 73% | 1011.2 hPa | 0 mm | - | 609 W/m² | - |
| 1778167432 | 29.44° C | 72% | 1011.1 hPa | 0 mm | - | 636 W/m² | - |
| 1778167128 | 28.89° C | 73% | 1011.2 hPa | 0 mm | - | 609 W/m² | - |
| 1778166824 | 28.33° C | 72% | 1011.3 hPa | 0 mm | - | 602 W/m² | - |
| 1778166522 | 28.33° C | 74% | 1011.7 hPa | 0 mm | - | 488 W/m² | - |
| 1778166218 | 28.33° C | 73% | 1011.9 hPa | 0 mm | - | 598 W/m² | - |
| 1778165914 | 27.78° C | 74% | 1011.9 hPa | 0 mm | - | 521 W/m² | - |
| 1778165611 | 28.89° C | 72% | 1011.9 hPa | 0 mm | - | 637 W/m² | - |
| 1778165308 | 28.33° C | 74% | 1012.1 hPa | 0 mm | - | 203 W/m² | - |
| 1778164959 | 27.78° C | 74% | 1012.5 hPa | 0 mm | - | 657 W/m² | - |
| 1778164655 | 27.78° C | 74% | 1012.5 hPa | 0 mm | - | 657 W/m² | - |
| 1778164352 | 27.78° C | 74% | 1012.5 hPa | 0 mm | - | 657 W/m² | - |
| 1778164048 | 27.78° C | 74% | 1012.7 hPa | 0 mm | - | 436 W/m² | - |
| 1778163745 | 27.22° C | 75% | 1013 hPa | 0 mm | - | 703 W/m² | - |
| 1778163441 | 26.67° C | 78% | 1013.2 hPa | 0 mm | - | 553 W/m² | - |
| 1778163139 | 26.67° C | 78% | 1013 hPa | 0 mm | - | 201 W/m² | - |
| 1778162834 | 26.67° C | 78% | 1013.2 hPa | 0 mm | - | 534 W/m² | - |
| 1778162532 | 26.67° C | 78% | 1013.1 hPa | 0 mm | - | 761 W/m² | - |
| 1778162229 | 26.11° C | 81% | 1013.3 hPa | 0 mm | - | 672 W/m² | - |
| 1778161926 | 25.56° C | 82% | 1013.5 hPa | 0 mm | - | 416 W/m² | - |
| 1778161622 | 25.56° C | 83% | 1013.4 hPa | 0 mm | - | 213 W/m² | - |
| 1778161319 | 25.56° C | 83% | 1013.6 hPa | 0 mm | - | 377 W/m² | - |
| 1778161015 | 25° C | 83% | 1013.8 hPa | 0 mm | - | 212 W/m² | - |
| 1778160712 | 25° C | 83% | 1014 hPa | 0 mm | - | 235 W/m² | - |
| 1778160409 | 25.56° C | 84% | 1013.9 hPa | 0 mm | - | 216 W/m² | - |
* Rain latest hour (hover to see other rain measurements)
** Current wind speed in m/s (hover to see current wind gust speed)